sensor_id;sensor_type;location;lat;lon;timestamp;P1;durP1;ratioP1;P2;durP2;ratioP2
20443;SDS011;10381;53.730;10.010;2022-09-29T00:02:39;73.18;;;53.00;;
20443;SDS011;10381;53.730;10.010;2022-09-29T00:06:39;78.53;;;53.88;;
20443;SDS011;10381;53.730;10.010;2022-09-29T00:10:39;70.00;;;55.67;;
20443;SDS011;10381;53.730;10.010;2022-09-29T00:14:40;79.63;;;55.47;;
20443;SDS011;10381;53.730;10.010;2022-09-29T00:18:40;92.10;;;54.57;;
20443;SDS011;10381;53.730;10.010;2022-09-29T00:22:40;82.75;;;54.60;;
20443;SDS011;10381;53.730;10.010;2022-09-29T00:26:41;71.57;;;53.80;;
20443;SDS011;10381;53.730;10.010;2022-09-29T00:30:41;75.90;;;51.78;;
20443;SDS011;10381;53.730;10.010;2022-09-29T00:34:41;80.67;;;49.73;;
20443;SDS011;10381;53.730;10.010;2022-09-29T00:38:42;71.73;;;45.87;;
20443;SDS011;10381;53.730;10.010;2022-09-29T00:42:43;72.25;;;48.88;;
20443;SDS011;10381;53.730;10.010;2022-09-29T00:46:45;85.57;;;51.38;;
20443;SDS011;10381;53.730;10.010;2022-09-29T00:50:51;78.13;;;48.50;;
20443;SDS011;10381;53.730;10.010;2022-09-29T00:55:55;77.80;;;47.72;;
20443;SDS011;10381;53.730;10.010;2022-09-29T00:59:56;81.00;;;49.25;;
20443;SDS011;10381;53.730;10.010;2022-09-29T01:04:10;69.40;;;49.65;;
20443;SDS011;10381;53.730;10.010;2022-09-29T01:08:16;74.10;;;49.13;;
20443;SDS011;10381;53.730;10.010;2022-09-29T01:12:23;80.65;;;48.97;;
20443;SDS011;10381;53.730;10.010;2022-09-29T01:16:24;76.95;;;47.25;;
20443;SDS011;10381;53.730;10.010;2022-09-29T01:20:24;67.17;;;45.93;;
20443;SDS011;10381;53.730;10.010;2022-09-29T01:29:01;79.50;;;45.33;;
20443;SDS011;10381;53.730;10.010;2022-09-29T01:41:48;63.70;;;41.63;;
20443;SDS011;10381;53.730;10.010;2022-09-29T01:45:58;77.75;;;43.65;;
20443;SDS011;10381;53.730;10.010;2022-09-29T01:50:03;70.95;;;42.05;;
20443;SDS011;10381;53.730;10.010;2022-09-29T01:54:11;69.85;;;41.80;;
20443;SDS011;10381;53.730;10.010;2022-09-29T01:58:17;82.20;;;43.83;;
20443;SDS011;10381;53.730;10.010;2022-09-29T02:02:32;63.15;;;42.28;;
20443;SDS011;10381;53.730;10.010;2022-09-29T02:06:39;58.42;;;40.45;;
20443;SDS011;10381;53.730;10.010;2022-09-29T02:10:50;72.63;;;43.75;;
20443;SDS011;10381;53.730;10.010;2022-09-29T02:14:57;67.55;;;40.42;;
20443;SDS011;10381;53.730;10.010;2022-09-29T02:19:07;71.15;;;43.97;;
20443;SDS011;10381;53.730;10.010;2022-09-29T02:23:14;72.05;;;44.92;;
20443;SDS011;10381;53.730;10.010;2022-09-29T02:27:14;64.80;;;42.80;;
20443;SDS011;10381;53.730;10.010;2022-09-29T02:31:15;63.38;;;42.80;;
20443;SDS011;10381;53.730;10.010;2022-09-29T02:35:15;58.97;;;43.45;;
20443;SDS011;10381;53.730;10.010;2022-09-29T02:39:24;63.17;;;46.03;;
20443;SDS011;10381;53.730;10.010;2022-09-29T02:43:31;65.45;;;45.78;;
20443;SDS011;10381;53.730;10.010;2022-09-29T02:52:19;66.43;;;42.67;;
20443;SDS011;10381;53.730;10.010;2022-09-29T03:00:58;59.03;;;46.05;;
20443;SDS011;10381;53.730;10.010;2022-09-29T03:04:59;68.85;;;50.10;;
20443;SDS011;10381;53.730;10.010;2022-09-29T03:08:59;67.65;;;45.75;;
20443;SDS011;10381;53.730;10.010;2022-09-29T03:12:59;63.13;;;46.13;;
20443;SDS011;10381;53.730;10.010;2022-09-29T03:16:59;64.63;;;45.05;;
20443;SDS011;10381;53.730;10.010;2022-09-29T03:21:00;58.10;;;44.93;;
20443;SDS011;10381;53.730;10.010;2022-09-29T03:25:00;58.85;;;45.05;;
20443;SDS011;10381;53.730;10.010;2022-09-29T03:29:01;78.47;;;46.72;;
20443;SDS011;10381;53.730;10.010;2022-09-29T03:33:02;79.45;;;47.90;;
20443;SDS011;10381;53.730;10.010;2022-09-29T03:37:02;71.60;;;47.90;;
20443;SDS011;10381;53.730;10.010;2022-09-29T03:41:03;62.80;;;46.22;;
20443;SDS011;10381;53.730;10.010;2022-09-29T03:45:04;66.20;;;48.53;;
20443;SDS011;10381;53.730;10.010;2022-09-29T03:49:04;70.53;;;45.38;;
20443;SDS011;10381;53.730;10.010;2022-09-29T03:53:05;62.00;;;45.00;;
20443;SDS011;10381;53.730;10.010;2022-09-29T03:57:05;66.10;;;45.75;;
20443;SDS011;10381;53.730;10.010;2022-09-29T04:01:05;73.67;;;48.80;;
20443;SDS011;10381;53.730;10.010;2022-09-29T04:05:06;65.90;;;46.92;;
20443;SDS011;10381;53.730;10.010;2022-09-29T04:09:06;69.85;;;49.72;;
20443;SDS011;10381;53.730;10.010;2022-09-29T04:13:07;71.03;;;48.40;;
20443;SDS011;10381;53.730;10.010;2022-09-29T04:17:08;62.28;;;44.95;;
20443;SDS011;10381;53.730;10.010;2022-09-29T04:21:08;56.73;;;47.67;;
20443;SDS011;10381;53.730;10.010;2022-09-29T04:25:08;70.00;;;49.23;;
20443;SDS011;10381;53.730;10.010;2022-09-29T04:29:09;71.55;;;50.47;;
20443;SDS011;10381;53.730;10.010;2022-09-29T04:33:10;65.22;;;49.38;;
20443;SDS011;10381;53.730;10.010;2022-09-29T04:37:10;74.18;;;48.72;;
20443;SDS011;10381;53.730;10.010;2022-09-29T04:41:10;67.27;;;47.10;;
20443;SDS011;10381;53.730;10.010;2022-09-29T04:45:10;60.40;;;45.63;;
20443;SDS011;10381;53.730;10.010;2022-09-29T04:49:11;56.50;;;45.97;;
20443;SDS011;10381;53.730;10.010;2022-09-29T04:53:11;60.15;;;45.10;;
20443;SDS011;10381;53.730;10.010;2022-09-29T04:57:11;55.60;;;45.03;;
20443;SDS011;10381;53.730;10.010;2022-09-29T05:01:12;65.18;;;49.45;;
20443;SDS011;10381;53.730;10.010;2022-09-29T05:05:12;64.97;;;46.80;;
20443;SDS011;10381;53.730;10.010;2022-09-29T05:09:13;64.97;;;49.55;;
20443;SDS011;10381;53.730;10.010;2022-09-29T05:13:13;61.57;;;49.90;;
20443;SDS011;10381;53.730;10.010;2022-09-29T05:17:14;63.30;;;48.03;;
20443;SDS011;10381;53.730;10.010;2022-09-29T05:21:14;66.50;;;49.63;;
20443;SDS011;10381;53.730;10.010;2022-09-29T05:25:15;58.17;;;47.53;;
20443;SDS011;10381;53.730;10.010;2022-09-29T05:29:15;75.53;;;50.10;;
20443;SDS011;10381;53.730;10.010;2022-09-29T05:33:16;63.75;;;52.40;;
20443;SDS011;10381;53.730;10.010;2022-09-29T05:37:16;97.70;;;53.07;;
20443;SDS011;10381;53.730;10.010;2022-09-29T05:41:17;67.15;;;49.88;;
20443;SDS011;10381;53.730;10.010;2022-09-29T05:45:21;64.70;;;47.05;;
20443;SDS011;10381;53.730;10.010;2022-09-29T05:49:21;75.57;;;49.93;;
20443;SDS011;10381;53.730;10.010;2022-09-29T05:53:22;72.82;;;50.70;;
20443;SDS011;10381;53.730;10.010;2022-09-29T05:57:22;73.75;;;49.25;;
20443;SDS011;10381;53.730;10.010;2022-09-29T06:01:23;78.07;;;52.37;;
20443;SDS011;10381;53.730;10.010;2022-09-29T06:05:25;82.47;;;48.80;;
20443;SDS011;10381;53.730;10.010;2022-09-29T06:09:26;81.95;;;49.30;;
20443;SDS011;10381;53.730;10.010;2022-09-29T06:13:26;72.73;;;50.33;;
20443;SDS011;10381;53.730;10.010;2022-09-29T06:17:26;68.20;;;47.73;;
20443;SDS011;10381;53.730;10.010;2022-09-29T06:21:27;73.87;;;49.37;;
20443;SDS011;10381;53.730;10.010;2022-09-29T06:25:28;84.15;;;51.08;;
20443;SDS011;10381;53.730;10.010;2022-09-29T06:29:29;80.23;;;56.10;;
20443;SDS011;10381;53.730;10.010;2022-09-29T06:33:29;82.40;;;52.83;;
20443;SDS011;10381;53.730;10.010;2022-09-29T06:37:31;73.50;;;52.10;;
20443;SDS011;10381;53.730;10.010;2022-09-29T06:41:34;95.03;;;55.35;;
20443;SDS011;10381;53.730;10.010;2022-09-29T06:45:34;86.85;;;57.22;;
20443;SDS011;10381;53.730;10.010;2022-09-29T06:49:34;85.18;;;55.70;;
20443;SDS011;10381;53.730;10.010;2022-09-29T06:53:35;93.83;;;57.97;;
20443;SDS011;10381;53.730;10.010;2022-09-29T06:57:35;102.53;;;57.35;;
20443;SDS011;10381;53.730;10.010;2022-09-29T07:01:37;97.65;;;56.15;;
20443;SDS011;10381;53.730;10.010;2022-09-29T07:05:37;112.30;;;61.03;;
20443;SDS011;10381;53.730;10.010;2022-09-29T07:09:37;119.27;;;62.73;;
20443;SDS011;10381;53.730;10.010;2022-09-29T07:13:38;107.90;;;62.40;;
20443;SDS011;10381;53.730;10.010;2022-09-29T07:17:38;118.65;;;60.67;;
20443;SDS011;10381;53.730;10.010;2022-09-29T07:21:39;109.90;;;64.03;;
20443;SDS011;10381;53.730;10.010;2022-09-29T07:25:39;112.68;;;64.28;;
20443;SDS011;10381;53.730;10.010;2022-09-29T07:29:40;112.63;;;63.35;;
20443;SDS011;10381;53.730;10.010;2022-09-29T07:33:40;113.55;;;63.05;;
20443;SDS011;10381;53.730;10.010;2022-09-29T07:37:41;110.93;;;66.22;;
20443;SDS011;10381;53.730;10.010;2022-09-29T07:41:41;99.43;;;63.30;;
20443;SDS011;10381;53.730;10.010;2022-09-29T07:45:46;122.82;;;62.55;;
20443;SDS011;10381;53.730;10.010;2022-09-29T07:49:47;100.60;;;63.90;;
20443;SDS011;10381;53.730;10.010;2022-09-29T07:53:48;115.85;;;65.63;;
20443;SDS011;10381;53.730;10.010;2022-09-29T07:57:49;110.68;;;70.68;;
20443;SDS011;10381;53.730;10.010;2022-09-29T08:01:49;116.18;;;71.10;;
20443;SDS011;10381;53.730;10.010;2022-09-29T08:05:50;113.00;;;72.43;;
20443;SDS011;10381;53.730;10.010;2022-09-29T08:09:51;104.18;;;69.28;;
20443;SDS011;10381;53.730;10.010;2022-09-29T08:13:51;111.80;;;75.77;;
20443;SDS011;10381;53.730;10.010;2022-09-29T08:17:53;106.13;;;68.00;;
20443;SDS011;10381;53.730;10.010;2022-09-29T08:21:54;106.97;;;65.28;;
20443;SDS011;10381;53.730;10.010;2022-09-29T08:25:58;110.47;;;67.83;;
20443;SDS011;10381;53.730;10.010;2022-09-29T08:30:02;96.13;;;66.53;;
20443;SDS011;10381;53.730;10.010;2022-09-29T08:34:03;98.22;;;65.70;;
20443;SDS011;10381;53.730;10.010;2022-09-29T08:38:03;89.00;;;60.33;;
20443;SDS011;10381;53.730;10.010;2022-09-29T08:42:05;94.63;;;67.93;;
20443;SDS011;10381;53.730;10.010;2022-09-29T08:46:22;108.88;;;65.68;;
20443;SDS011;10381;53.730;10.010;2022-09-29T08:54:33;72.45;;;54.40;;
20443;SDS011;10381;53.730;10.010;2022-09-29T08:58:37;73.45;;;51.58;;
20443;SDS011;10381;53.730;10.010;2022-09-29T09:02:58;64.20;;;52.50;;
20443;SDS011;10381;53.730;10.010;2022-09-29T09:07:19;60.72;;;41.75;;
20443;SDS011;10381;53.730;10.010;2022-09-29T09:20:26;49.00;;;32.65;;
20443;SDS011;10381;53.730;10.010;2022-09-29T09:24:40;38.75;;;26.08;;
20443;SDS011;10381;53.730;10.010;2022-09-29T09:29:03;37.08;;;25.10;;
20443;SDS011;10381;53.730;10.010;2022-09-29T09:37:41;30.63;;;22.13;;
20443;SDS011;10381;53.730;10.010;2022-09-29T09:41:45;32.28;;;22.63;;
20443;SDS011;10381;53.730;10.010;2022-09-29T09:50:22;32.67;;;22.05;;
20443;SDS011;10381;53.730;10.010;2022-09-29T09:58:32;37.42;;;23.38;;
20443;SDS011;10381;53.730;10.010;2022-09-29T10:02:53;30.00;;;21.98;;
20443;SDS011;10381;53.730;10.010;2022-09-29T10:06:55;33.20;;;20.88;;
20443;SDS011;10381;53.730;10.010;2022-09-29T10:10:56;43.03;;;23.60;;
20443;SDS011;10381;53.730;10.010;2022-09-29T10:15:05;33.72;;;24.83;;
20443;SDS011;10381;53.730;10.010;2022-09-29T10:19:20;38.03;;;28.38;;
20443;SDS011;10381;53.730;10.010;2022-09-29T10:23:49;35.60;;;28.00;;
20443;SDS011;10381;53.730;10.010;2022-09-29T10:27:54;37.63;;;26.77;;
20443;SDS011;10381;53.730;10.010;2022-09-29T10:32:09;47.60;;;29.25;;
20443;SDS011;10381;53.730;10.010;2022-09-29T10:36:55;36.13;;;27.70;;
20443;SDS011;10381;53.730;10.010;2022-09-29T10:45:21;39.03;;;26.10;;
20443;SDS011;10381;53.730;10.010;2022-09-29T10:49:42;33.83;;;23.75;;
20443;SDS011;10381;53.730;10.010;2022-09-29T10:53:42;55.88;;;25.80;;
20443;SDS011;10381;53.730;10.010;2022-09-29T10:57:43;37.23;;;25.37;;
20443;SDS011;10381;53.730;10.010;2022-09-29T11:01:49;29.92;;;22.63;;
20443;SDS011;10381;53.730;10.010;2022-09-29T11:06:10;40.80;;;27.77;;
20443;SDS011;10381;53.730;10.010;2022-09-29T11:18:36;28.50;;;21.63;;
20443;SDS011;10381;53.730;10.010;2022-09-29T11:22:44;40.88;;;23.20;;
20443;SDS011;10381;53.730;10.010;2022-09-29T11:27:11;28.95;;;21.33;;
20443;SDS011;10381;53.730;10.010;2022-09-29T11:31:37;23.95;;;19.50;;
20443;SDS011;10381;53.730;10.010;2022-09-29T11:45:37;26.52;;;19.27;;
20443;SDS011;10381;53.730;10.010;2022-09-29T11:54:11;27.10;;;18.08;;
20443;SDS011;10381;53.730;10.010;2022-09-29T11:58:31;26.40;;;17.40;;
20443;SDS011;10381;53.730;10.010;2022-09-29T12:19:58;28.20;;;20.40;;
20443;SDS011;10381;53.730;10.010;2022-09-29T12:24:03;24.75;;;18.98;;
20443;SDS011;10381;53.730;10.010;2022-09-29T12:28:10;28.65;;;21.27;;
20443;SDS011;10381;53.730;10.010;2022-09-29T12:32:20;35.03;;;24.90;;
20443;SDS011;10381;53.730;10.010;2022-09-29T12:36:33;35.15;;;24.58;;
20443;SDS011;10381;53.730;10.010;2022-09-29T12:40:48;29.35;;;22.92;;
20443;SDS011;10381;53.730;10.010;2022-09-29T12:44:56;42.20;;;29.65;;
20443;SDS011;10381;53.730;10.010;2022-09-29T12:53:24;40.88;;;28.95;;
20443;SDS011;10381;53.730;10.010;2022-09-29T12:57:33;41.83;;;31.73;;
20443;SDS011;10381;53.730;10.010;2022-09-29T13:01:39;37.30;;;33.30;;
20443;SDS011;10381;53.730;10.010;2022-09-29T13:06:40;41.17;;;36.85;;
20443;SDS011;10381;53.730;10.010;2022-09-29T13:23:22;64.78;;;58.22;;
20443;SDS011;10381;53.730;10.010;2022-09-29T13:27:30;85.40;;;76.95;;
20443;SDS011;10381;53.730;10.010;2022-09-29T13:31:35;526.55;;;482.58;;
20443;SDS011;10381;53.730;10.010;2022-09-29T13:35:39;759.78;;;698.17;;
20443;SDS011;10381;53.730;10.010;2022-09-29T13:39:42;856.42;;;785.28;;
20443;SDS011;10381;53.730;10.010;2022-09-29T13:44:03;900.97;;;822.15;;
20443;SDS011;10381;53.730;10.010;2022-09-29T13:56:17;895.97;;;810.72;;
20443;SDS011;10381;53.730;10.010;2022-09-29T14:00:19;859.53;;;777.42;;
20443;SDS011;10381;53.730;10.010;2022-09-29T14:04:41;835.45;;;758.03;;
20443;SDS011;10381;53.730;10.010;2022-09-29T14:08:52;803.85;;;731.30;;
20443;SDS011;10381;53.730;10.010;2022-09-29T14:13:04;810.50;;;739.60;;
20443;SDS011;10381;53.730;10.010;2022-09-29T14:17:21;822.80;;;749.78;;
20443;SDS011;10381;53.730;10.010;2022-09-29T14:29:52;836.70;;;757.10;;
20443;SDS011;10381;53.730;10.010;2022-09-29T14:33:59;799.03;;;721.70;;
20443;SDS011;10381;53.730;10.010;2022-09-29T14:42:21;767.33;;;694.13;;
20443;SDS011;10381;53.730;10.010;2022-09-29T14:55:14;725.78;;;656.72;;
20443;SDS011;10381;53.730;10.010;2022-09-29T14:59:23;699.97;;;632.97;;
20443;SDS011;10381;53.730;10.010;2022-09-29T15:03:44;682.28;;;616.55;;
20443;SDS011;10381;53.730;10.010;2022-09-29T15:07:46;675.90;;;611.40;;
20443;SDS011;10381;53.730;10.010;2022-09-29T15:11:50;662.80;;;599.10;;
20443;SDS011;10381;53.730;10.010;2022-09-29T15:16:04;635.25;;;574.63;;
20443;SDS011;10381;53.730;10.010;2022-09-29T15:20:21;629.08;;;567.83;;
20443;SDS011;10381;53.730;10.010;2022-09-29T15:24:41;627.83;;;566.05;;
20443;SDS011;10381;53.730;10.010;2022-09-29T15:28:49;603.67;;;543.45;;
20443;SDS011;10381;53.730;10.010;2022-09-29T15:32:50;590.33;;;531.97;;
20443;SDS011;10381;53.730;10.010;2022-09-29T15:36:52;574.10;;;515.72;;
20443;SDS011;10381;53.730;10.010;2022-09-29T15:40:56;563.50;;;507.65;;
20443;SDS011;10381;53.730;10.010;2022-09-29T15:45:07;546.17;;;491.85;;
20443;SDS011;10381;53.730;10.010;2022-09-29T15:49:15;540.05;;;486.05;;
20443;SDS011;10381;53.730;10.010;2022-09-29T15:53:16;523.13;;;470.60;;
20443;SDS011;10381;53.730;10.010;2022-09-29T16:01:42;511.27;;;459.90;;
20443;SDS011;10381;53.730;10.010;2022-09-29T16:05:44;495.10;;;445.33;;
20443;SDS011;10381;53.730;10.010;2022-09-29T16:14:22;475.67;;;427.45;;
20443;SDS011;10381;53.730;10.010;2022-09-29T16:22:35;450.73;;;405.92;;
20443;SDS011;10381;53.730;10.010;2022-09-29T16:26:41;446.10;;;401.33;;
20443;SDS011;10381;53.730;10.010;2022-09-29T16:30:44;424.17;;;382.02;;
20443;SDS011;10381;53.730;10.010;2022-09-29T16:39:41;408.48;;;367.80;;
20443;SDS011;10381;53.730;10.010;2022-09-29T16:43:44;398.60;;;358.25;;
20443;SDS011;10381;53.730;10.010;2022-09-29T16:47:45;394.45;;;354.83;;
20443;SDS011;10381;53.730;10.010;2022-09-29T16:51:47;388.52;;;350.00;;
20443;SDS011;10381;53.730;10.010;2022-09-29T16:55:58;377.67;;;340.40;;
20443;SDS011;10381;53.730;10.010;2022-09-29T17:00:10;375.63;;;338.80;;
20443;SDS011;10381;53.730;10.010;2022-09-29T17:04:11;370.27;;;334.15;;
20443;SDS011;10381;53.730;10.010;2022-09-29T17:08:14;374.13;;;337.53;;
20443;SDS011;10381;53.730;10.010;2022-09-29T17:12:28;360.33;;;326.13;;
20443;SDS011;10381;53.730;10.010;2022-09-29T17:16:29;357.58;;;322.73;;
20443;SDS011;10381;53.730;10.010;2022-09-29T17:20:30;347.77;;;314.25;;
20443;SDS011;10381;53.730;10.010;2022-09-29T17:24:30;354.63;;;319.55;;
20443;SDS011;10381;53.730;10.010;2022-09-29T17:28:30;350.10;;;315.63;;
20443;SDS011;10381;53.730;10.010;2022-09-29T17:32:31;357.58;;;323.05;;
20443;SDS011;10381;53.730;10.010;2022-09-29T17:36:32;358.50;;;322.65;;
20443;SDS011;10381;53.730;10.010;2022-09-29T17:44:54;349.85;;;316.10;;
20443;SDS011;10381;53.730;10.010;2022-09-29T17:48:54;356.30;;;321.67;;
20443;SDS011;10381;53.730;10.010;2022-09-29T17:52:54;360.27;;;326.10;;
20443;SDS011;10381;53.730;10.010;2022-09-29T17:56:56;340.23;;;306.00;;
20443;SDS011;10381;53.730;10.010;2022-09-29T18:00:58;346.17;;;313.00;;
20443;SDS011;10381;53.730;10.010;2022-09-29T18:04:58;336.03;;;303.83;;
20443;SDS011;10381;53.730;10.010;2022-09-29T18:08:59;320.73;;;290.10;;
20443;SDS011;10381;53.730;10.010;2022-09-29T18:12:59;332.98;;;299.30;;
20443;SDS011;10381;53.730;10.010;2022-09-29T18:17:00;324.20;;;291.55;;
20443;SDS011;10381;53.730;10.010;2022-09-29T18:21:04;330.85;;;299.27;;
20443;SDS011;10381;53.730;10.010;2022-09-29T18:25:05;323.23;;;292.25;;
20443;SDS011;10381;53.730;10.010;2022-09-29T18:29:13;318.23;;;288.25;;
20443;SDS011;10381;53.730;10.010;2022-09-29T18:33:16;304.15;;;274.88;;
20443;SDS011;10381;53.730;10.010;2022-09-29T18:37:18;314.73;;;283.25;;
20443;SDS011;10381;53.730;10.010;2022-09-29T18:41:18;306.13;;;275.63;;
20443;SDS011;10381;53.730;10.010;2022-09-29T18:45:21;292.98;;;264.38;;
20443;SDS011;10381;53.730;10.010;2022-09-29T18:49:22;287.25;;;258.45;;
20443;SDS011;10381;53.730;10.010;2022-09-29T18:53:23;285.55;;;257.45;;
20443;SDS011;10381;53.730;10.010;2022-09-29T18:57:24;300.77;;;271.33;;
20443;SDS011;10381;53.730;10.010;2022-09-29T19:01:24;289.30;;;260.43;;
20443;SDS011;10381;53.730;10.010;2022-09-29T19:05:27;288.23;;;258.38;;
20443;SDS011;10381;53.730;10.010;2022-09-29T19:09:30;276.27;;;248.60;;
20443;SDS011;10381;53.730;10.010;2022-09-29T19:13:30;276.17;;;248.83;;
20443;SDS011;10381;53.730;10.010;2022-09-29T19:17:31;274.67;;;247.70;;
20443;SDS011;10381;53.730;10.010;2022-09-29T19:21:31;281.23;;;253.00;;
20443;SDS011;10381;53.730;10.010;2022-09-29T19:25:33;277.10;;;249.27;;
20443;SDS011;10381;53.730;10.010;2022-09-29T19:29:35;270.00;;;242.77;;
20443;SDS011;10381;53.730;10.010;2022-09-29T19:33:36;276.90;;;248.90;;
20443;SDS011;10381;53.730;10.010;2022-09-29T19:37:37;270.25;;;243.55;;
20443;SDS011;10381;53.730;10.010;2022-09-29T19:41:38;265.83;;;239.65;;
20443;SDS011;10381;53.730;10.010;2022-09-29T19:45:38;263.07;;;236.50;;
20443;SDS011;10381;53.730;10.010;2022-09-29T19:49:39;271.98;;;243.30;;
20443;SDS011;10381;53.730;10.010;2022-09-29T19:53:39;272.10;;;243.60;;
20443;SDS011;10381;53.730;10.010;2022-09-29T19:57:40;263.08;;;237.05;;
20443;SDS011;10381;53.730;10.010;2022-09-29T20:01:41;276.65;;;248.73;;
20443;SDS011;10381;53.730;10.010;2022-09-29T20:05:44;261.10;;;234.23;;
20443;SDS011;10381;53.730;10.010;2022-09-29T20:09:44;265.57;;;237.63;;
20443;SDS011;10381;53.730;10.010;2022-09-29T20:13:45;262.98;;;236.02;;
20443;SDS011;10381;53.730;10.010;2022-09-29T20:17:45;257.30;;;231.90;;
20443;SDS011;10381;53.730;10.010;2022-09-29T20:21:46;261.87;;;235.30;;
20443;SDS011;10381;53.730;10.010;2022-09-29T20:25:56;264.45;;;238.13;;
20443;SDS011;10381;53.730;10.010;2022-09-29T20:29:58;271.10;;;244.95;;
20443;SDS011;10381;53.730;10.010;2022-09-29T20:33:58;287.87;;;259.77;;
20443;SDS011;10381;53.730;10.010;2022-09-29T20:37:58;274.23;;;247.90;;
20443;SDS011;10381;53.730;10.010;2022-09-29T20:42:00;279.23;;;252.57;;
20443;SDS011;10381;53.730;10.010;2022-09-29T20:46:03;272.02;;;246.02;;
20443;SDS011;10381;53.730;10.010;2022-09-29T20:50:05;261.45;;;236.45;;
20443;SDS011;10381;53.730;10.010;2022-09-29T20:54:05;266.95;;;241.40;;
20443;SDS011;10381;53.730;10.010;2022-09-29T20:58:05;259.03;;;234.63;;
20443;SDS011;10381;53.730;10.010;2022-09-29T21:02:07;256.27;;;232.82;;
20443;SDS011;10381;53.730;10.010;2022-09-29T21:06:09;263.90;;;238.05;;
20443;SDS011;10381;53.730;10.010;2022-09-29T21:10:09;251.38;;;228.52;;
20443;SDS011;10381;53.730;10.010;2022-09-29T21:14:15;255.73;;;232.20;;
20443;SDS011;10381;53.730;10.010;2022-09-29T21:18:17;256.20;;;232.35;;
20443;SDS011;10381;53.730;10.010;2022-09-29T21:22:17;262.13;;;238.70;;
20443;SDS011;10381;53.730;10.010;2022-09-29T21:26:19;249.98;;;226.07;;
20443;SDS011;10381;53.730;10.010;2022-09-29T21:30:22;252.20;;;228.52;;
20443;SDS011;10381;53.730;10.010;2022-09-29T21:34:22;243.13;;;220.27;;
20443;SDS011;10381;53.730;10.010;2022-09-29T21:38:23;237.15;;;215.07;;
20443;SDS011;10381;53.730;10.010;2022-09-29T21:42:27;231.48;;;209.85;;
20443;SDS011;10381;53.730;10.010;2022-09-29T21:46:29;216.63;;;195.73;;
20443;SDS011;10381;53.730;10.010;2022-09-29T21:50:30;211.90;;;192.73;;
20443;SDS011;10381;53.730;10.010;2022-09-29T21:54:31;196.77;;;178.27;;
20443;SDS011;10381;53.730;10.010;2022-09-29T21:58:32;197.38;;;178.82;;
20443;SDS011;10381;53.730;10.010;2022-09-29T22:02:33;193.48;;;176.00;;
20443;SDS011;10381;53.730;10.010;2022-09-29T22:06:34;187.35;;;169.88;;
20443;SDS011;10381;53.730;10.010;2022-09-29T22:10:36;190.63;;;172.57;;
20443;SDS011;10381;53.730;10.010;2022-09-29T22:14:36;185.13;;;167.30;;
20443;SDS011;10381;53.730;10.010;2022-09-29T22:18:37;174.13;;;157.63;;
20443;SDS011;10381;53.730;10.010;2022-09-29T22:22:38;168.60;;;152.93;;
20443;SDS011;10381;53.730;10.010;2022-09-29T22:26:39;170.80;;;155.35;;
20443;SDS011;10381;53.730;10.010;2022-09-29T22:30:39;162.43;;;147.75;;
20443;SDS011;10381;53.730;10.010;2022-09-29T22:34:40;157.20;;;142.60;;
20443;SDS011;10381;53.730;10.010;2022-09-29T22:38:40;158.47;;;141.87;;
20443;SDS011;10381;53.730;10.010;2022-09-29T22:42:41;161.07;;;146.52;;
20443;SDS011;10381;53.730;10.010;2022-09-29T22:46:42;164.73;;;149.77;;
20443;SDS011;10381;53.730;10.010;2022-09-29T22:50:43;169.40;;;152.37;;
20443;SDS011;10381;53.730;10.010;2022-09-29T22:54:44;160.77;;;146.32;;
20443;SDS011;10381;53.730;10.010;2022-09-29T22:58:45;146.27;;;131.73;;
20443;SDS011;10381;53.730;10.010;2022-09-29T23:02:47;137.25;;;124.38;;
20443;SDS011;10381;53.730;10.010;2022-09-29T23:06:48;145.38;;;131.20;;
20443;SDS011;10381;53.730;10.010;2022-09-29T23:10:48;145.82;;;132.40;;
20443;SDS011;10381;53.730;10.010;2022-09-29T23:14:48;136.67;;;123.73;;
20443;SDS011;10381;53.730;10.010;2022-09-29T23:18:51;127.73;;;116.03;;
20443;SDS011;10381;53.730;10.010;2022-09-29T23:22:53;132.50;;;120.40;;
20443;SDS011;10381;53.730;10.010;2022-09-29T23:26:53;133.43;;;121.00;;
20443;SDS011;10381;53.730;10.010;2022-09-29T23:30:54;128.68;;;116.43;;
20443;SDS011;10381;53.730;10.010;2022-09-29T23:34:54;127.82;;;114.85;;
20443;SDS011;10381;53.730;10.010;2022-09-29T23:38:54;132.87;;;120.63;;
20443;SDS011;10381;53.730;10.010;2022-09-29T23:43:10;142.63;;;129.20;;
20443;SDS011;10381;53.730;10.010;2022-09-29T23:47:10;137.80;;;125.43;;
20443;SDS011;10381;53.730;10.010;2022-09-29T23:51:11;145.38;;;132.30;;
20443;SDS011;10381;53.730;10.010;2022-09-29T23:55:11;138.60;;;125.95;;
20443;SDS011;10381;53.730;10.010;2022-09-29T23:59:12;144.73;;;130.95;;
